Time;durP1;ratioP1;P1;durP2;ratioP2;P2;SDS_P1;SDS_P2;PMS_P1;PMS_P2;Temp;Humidity;BMP_temperature;BMP_pressure;BME280_temperature;BME280_humidity;BME280_pressure;Samples;Min_cycle;Max_cycle;Signal;HPM_P1;HPM_P2
2021/03/11 00:00:30;;;;;;;14.57;7.90;;;9.30;70.80;;;;;;5093680;28;20206;-73
2021/03/11 00:02:56;;;;;;;20.40;8.57;;;9.30;70.30;;;;;;5093698;28;20309;-77
2021/03/11 00:05:23;;;;;;;12.68;8.00;;;9.40;70.40;;;;;;5092871;28;20264;-77
2021/03/11 00:07:49;;;;;;;12.38;7.93;;;9.40;70.60;;;;;;5092525;28;20763;-77
2021/03/11 00:10:16;;;;;;;11.77;7.15;;;9.50;70.00;;;;;;5092600;28;20289;-74
2021/03/11 00:12:44;;;;;;;16.02;8.20;;;9.50;70.80;;;;;;5092655;28;20228;-73
2021/03/11 00:15:14;;;;;;;11.73;7.97;;;9.50;69.80;;;;;;5093006;28;20206;-73
2021/03/11 00:17:41;;;;;;;14.80;8.27;;;9.50;70.10;;;;;;5092504;28;20233;-72
2021/03/11 00:20:10;;;;;;;13.10;8.00;;;9.50;70.30;;;;;;5092732;28;20659;-72
2021/03/11 00:22:37;;;;;;;10.43;7.72;;;9.50;70.10;;;;;;5093440;28;20244;-73
2021/03/11 00:25:05;;;;;;;11.80;7.68;;;9.50;70.20;;;;;;5093714;28;20296;-73
2021/03/11 00:27:31;;;;;;;10.20;7.13;;;9.50;70.00;;;;;;5093875;28;20206;-73
2021/03/11 00:29:58;;;;;;;15.32;8.23;;;9.50;69.90;;;;;;5093211;28;20597;-72
2021/03/11 00:32:25;;;;;;;11.23;7.75;;;9.60;71.10;;;;;;5093262;28;20257;-73
2021/03/11 00:34:51;;;;;;;12.13;7.75;;;9.50;70.20;;;;;;5093183;28;20297;-73
2021/03/11 00:37:18;;;;;;;12.20;8.02;;;9.50;70.50;;;;;;5093635;28;20606;-74
2021/03/11 00:39:44;;;;;;;14.50;7.95;;;9.50;71.00;;;;;;5093217;28;20229;-73
2021/03/11 00:42:10;;;;;;;10.07;7.15;;;9.50;70.60;;;;;;5092895;28;20864;-73
2021/03/11 00:44:37;;;;;;;13.63;7.65;;;9.50;70.80;;;;;;5092683;28;20684;-73
2021/03/11 00:47:04;;;;;;;12.68;7.65;;;9.60;71.20;;;;;;5093125;28;20230;-73
2021/03/11 00:49:32;;;;;;;11.15;7.10;;;9.70;71.20;;;;;;5092922;28;20202;-73
2021/03/11 00:51:58;;;;;;;13.02;7.30;;;9.70;71.40;;;;;;5093502;28;20253;-72
2021/03/11 00:54:24;;;;;;;12.52;7.47;;;9.70;71.50;;;;;;5092445;28;20346;-74
2021/03/11 00:56:51;;;;;;;14.05;8.18;;;9.70;71.10;;;;;;5092439;28;20232;-75
2021/03/11 00:59:17;;;;;;;10.88;7.60;;;9.80;71.10;;;;;;5092633;28;20233;-74
2021/03/11 01:01:43;;;;;;;12.63;8.25;;;9.80;71.10;;;;;;5093427;28;20218;-77
2021/03/11 01:04:10;;;;;;;11.45;7.40;;;9.70;72.00;;;;;;5093036;28;20205;-73
2021/03/11 01:06:37;;;;;;;10.32;7.28;;;9.70;71.70;;;;;;5091891;28;20672;-73
2021/03/11 01:09:04;;;;;;;13.10;7.70;;;9.70;71.80;;;;;;5092095;28;20575;-71
2021/03/11 01:11:31;;;;;;;16.20;8.05;;;9.70;71.70;;;;;;5092427;28;20309;-72
2021/03/11 01:13:57;;;;;;;9.80;6.80;;;9.80;71.90;;;;;;5092065;28;20703;-72
2021/03/11 01:16:23;;;;;;;11.70;6.88;;;9.80;71.70;;;;;;5091918;28;20272;-71
2021/03/11 01:18:50;;;;;;;15.82;8.30;;;9.80;71.90;;;;;;5092172;28;20285;-72
2021/03/11 01:21:16;;;;;;;12.73;7.25;;;9.80;71.80;;;;;;5091915;28;20249;-72
2021/03/11 01:23:44;;;;;;;10.98;6.88;;;9.80;72.00;;;;;;5092030;28;20665;-71
2021/03/11 01:26:11;;;;;;;14.27;7.93;;;9.80;72.80;;;;;;5092121;28;20259;-71
2021/03/11 01:28:38;;;;;;;13.70;8.20;;;9.80;72.40;;;;;;5091936;28;20202;-72
2021/03/11 01:31:04;;;;;;;11.05;6.80;;;9.80;73.20;;;;;;5094976;28;20672;-71
2021/03/11 01:33:30;;;;;;;11.40;7.28;;;9.80;73.10;;;;;;5096032;28;20226;-71
2021/03/11 01:35:57;;;;;;;11.80;7.75;;;9.80;73.00;;;;;;5095566;28;20209;-72
2021/03/11 01:38:23;;;;;;;10.27;5.95;;;9.80;73.10;;;;;;5095425;28;20290;-72
2021/03/11 01:40:50;;;;;;;10.18;6.20;;;9.70;73.20;;;;;;5095725;28;20285;-71
2021/03/11 01:43:17;;;;;;;9.07;5.43;;;9.70;73.40;;;;;;5095777;28;20204;-72
2021/03/11 01:45:43;;;;;;;9.68;5.95;;;9.70;74.50;;;;;;5095685;28;20781;-72
2021/03/11 01:48:10;;;;;;;10.98;6.55;;;9.70;75.00;;;;;;5095199;28;20753;-72
2021/03/11 01:50:36;;;;;;;9.65;6.07;;;9.80;74.90;;;;;;5095394;28;20202;-71
2021/03/11 01:53:03;;;;;;;7.80;5.78;;;9.80;74.90;;;;;;5095130;28;20279;-72
2021/03/11 01:55:31;;;;;;;8.32;5.18;;;9.80;75.60;;;;;;5095544;28;20210;-71
2021/03/11 01:57:58;;;;;;;6.15;4.82;;;9.80;76.40;;;;;;5095221;28;20206;-71
2021/03/11 02:00:25;;;;;;;7.80;4.85;;;9.70;77.10;;;;;;5095223;28;20206;-72
2021/03/11 02:02:52;;;;;;;6.15;4.90;;;9.70;77.80;;;;;;5095404;28;20786;-71
2021/03/11 02:05:20;;;;;;;5.93;3.75;;;9.60;77.90;;;;;;5095402;28;20202;-69
2021/03/11 02:07:47;;;;;;;5.93;3.50;;;9.70;78.20;;;;;;5095154;28;20756;-70
2021/03/11 02:10:17;;;;;;;5.47;3.60;;;9.70;78.90;;;;;;5095860;28;20239;-74
2021/03/11 02:12:51;;;;;;;5.57;3.75;;;9.80;78.90;;;;;;5097123;28;20218;-75
2021/03/11 02:15:24;;;;;;;4.10;3.55;;;9.90;79.50;;;;;;5096319;28;20733;-71
2021/03/11 02:17:57;;;;;;;5.80;3.78;;;9.90;79.90;;;;;;5095748;28;20221;-70
2021/03/11 02:20:41;;;;;;;5.80;3.63;;;9.90;80.10;;;;;;5096404;28;20289;-72
2021/03/11 02:23:41;;;;;;;5.70;3.53;;;9.90;79.80;;;;;;5096888;28;20214;-74
2021/03/11 02:26:23;;;;;;;5.32;3.55;;;9.90;80.90;;;;;;5096425;28;20751;-72
2021/03/11 02:28:59;;;;;;;4.68;3.22;;;9.80;80.40;;;;;;5096697;28;20205;-73
2021/03/11 02:31:26;;;;;;;7.20;3.70;;;9.70;80.50;;;;;;5095468;28;20226;-73
2021/03/11 02:33:56;;;;;;;4.93;3.45;;;9.70;80.50;;;;;;5095997;28;20221;-73
2021/03/11 02:36:25;;;;;;;4.97;2.97;;;9.70;80.00;;;;;;5094941;28;20668;-73
2021/03/11 02:38:53;;;;;;;6.57;3.58;;;9.70;80.60;;;;;;5095597;28;20209;-73
2021/03/11 02:41:21;;;;;;;5.43;3.53;;;9.70;81.20;;;;;;5094567;28;20251;-72
2021/03/11 02:43:49;;;;;;;5.45;3.97;;;9.70;81.70;;;;;;5095560;28;20194;-73
2021/03/11 02:46:18;;;;;;;6.50;4.20;;;9.70;82.10;;;;;;5094909;28;20307;-73
2021/03/11 02:48:45;;;;;;;6.95;4.30;;;9.70;81.40;;;;;;5095012;28;20208;-73
2021/03/11 02:51:12;;;;;;;5.90;3.90;;;9.70;81.80;;;;;;5094767;28;20779;-73
2021/03/11 02:53:40;;;;;;;6.45;3.75;;;9.60;82.50;;;;;;5094757;28;20312;-73
2021/03/11 02:56:08;;;;;;;6.72;4.00;;;9.60;82.60;;;;;;5094456;28;20866;-75
2021/03/11 02:58:35;;;;;;;6.97;4.13;;;9.50;80.90;;;;;;5094301;28;20206;-74
2021/03/11 03:01:02;;;;;;;5.75;4.85;;;9.40;81.80;;;;;;5095478;28;20230;-78
2021/03/11 03:03:30;;;;;;;8.85;5.20;;;9.40;81.60;;;;;;5097579;28;20258;-79
2021/03/11 03:05:57;;;;;;;6.47;4.25;;;9.50;83.00;;;;;;5097540;28;20262;-77
2021/03/11 03:08:26;;;;;;;9.07;4.75;;;9.50;81.30;;;;;;5100585;28;20205;-79
2021/03/11 03:10:54;;;;;;;6.95;4.43;;;9.50;81.10;;;;;;5098903;28;20571;-78
2021/03/11 03:13:22;;;;;;;9.25;5.03;;;9.50;81.10;;;;;;5096662;28;20313;-80
2021/03/11 03:15:48;;;;;;;8.73;4.82;;;9.50;81.70;;;;;;5095819;28;20202;-80
2021/03/11 03:18:17;;;;;;;7.63;4.60;;;9.50;80.30;;;;;;5093853;28;20289;-77
2021/03/11 03:20:46;;;;;;;9.05;5.13;;;9.50;80.20;;;;;;5095741;28;20297;-79
2021/03/11 03:23:13;;;;;;;7.60;4.93;;;9.50;80.00;;;;;;5095736;28;20887;-77
2021/03/11 03:25:39;;;;;;;8.85;4.85;;;9.50;81.10;;;;;;5095614;28;20289;-80
2021/03/11 03:28:06;;;;;;;8.75;5.20;;;9.50;80.00;;;;;;5094557;28;20771;-78
2021/03/11 03:30:32;;;;;;;7.85;5.30;;;9.50;79.10;;;;;;5095397;28;20296;-79
2021/03/11 03:32:59;;;;;;;9.40;5.68;;;9.50;82.10;;;;;;5095931;28;20225;-80
2021/03/11 03:35:25;;;;;;;7.90;5.55;;;9.30;86.10;;;;;;5099042;28;20259;-80
2021/03/11 03:37:53;;;;;;;9.65;5.70;;;9.30;88.00;;;;;;5095680;28;20198;-82
2021/03/11 03:40:23;;;;;;;9.60;5.53;;;9.20;89.20;;;;;;5096935;28;20206;-80
2021/03/11 03:42:54;;;;;;;11.00;5.78;;;9.20;90.50;;;;;;5097824;28;20222;-80
2021/03/11 03:45:25;;;;;;;8.20;5.35;;;9.30;90.60;;;;;;5096219;28;20301;-82
2021/03/11 03:47:52;;;;;;;9.88;5.85;;;9.20;89.30;;;;;;5095487;28;20285;-81
2021/03/11 03:50:20;;;;;;;7.47;4.90;;;9.20;91.50;;;;;;5095657;28;20570;-72
2021/03/11 03:52:48;;;;;;;7.47;4.65;;;9.20;90.10;;;;;;5094587;28;20230;-72
2021/03/11 03:55:16;;;;;;;8.05;4.90;;;9.20;90.30;;;;;;5095211;28;20280;-71
2021/03/11 03:57:48;;;;;;;8.50;5.82;;;9.10;90.50;;;;;;5094655;28;20568;-71
2021/03/11 04:00:16;;;;;;;7.15;4.75;;;9.10;90.40;;;;;;5095117;28;20306;-71
2021/03/11 04:02:43;;;;;;;9.27;4.88;;;9.10;90.20;;;;;;5095427;28;20249;-71
2021/03/11 04:05:11;;;;;;;7.20;4.50;;;9.10;91.20;;;;;;5094793;28;20289;-71
2021/03/11 04:07:38;;;;;;;8.15;4.70;;;9.10;91.20;;;;;;5094872;28;20198;-71
2021/03/11 04:10:07;;;;;;;11.48;4.80;;;9.10;90.50;;;;;;5095184;28;20297;-71
2021/03/11 04:12:35;;;;;;;7.50;3.78;;;9.10;91.40;;;;;;5094267;28;20226;-71
2021/03/11 04:15:02;;;;;;;5.95;3.47;;;9.10;91.50;;;;;;5094597;28;20202;-71
2021/03/11 04:17:29;;;;;;;9.13;3.50;;;9.30;91.00;;;;;;5096233;28;20206;-71
2021/03/11 04:19:56;;;;;;;4.47;3.20;;;9.50;91.10;;;;;;5096345;28;20202;-71
2021/03/11 04:22:23;;;;;;;4.93;3.30;;;9.70;91.20;;;;;;5095013;28;20224;-71
2021/03/11 04:24:50;;;;;;;4.38;3.15;;;9.80;91.10;;;;;;5095774;28;20228;-71
2021/03/11 04:27:17;;;;;;;5.28;3.00;;;10.00;90.70;;;;;;5094287;28;20648;-71
2021/03/11 04:29:44;;;;;;;5.05;3.10;;;10.10;90.80;;;;;;5094372;28;20212;-71
2021/03/11 04:32:11;;;;;;;9.57;4.75;;;10.20;90.90;;;;;;5094523;28;20222;-71
2021/03/11 04:34:38;;;;;;;4.07;2.88;;;10.30;91.00;;;;;;5094507;28;20278;-71
2021/03/11 04:37:04;;;;;;;4.80;2.80;;;10.40;91.20;;;;;;5094784;28;20666;-71
2021/03/11 04:39:32;;;;;;;5.20;3.30;;;10.40;91.00;;;;;;5095267;28;20198;-72
2021/03/11 04:41:59;;;;;;;4.10;2.80;;;10.50;91.00;;;;;;5094687;28;20228;-71
2021/03/11 04:44:27;;;;;;;5.65;2.70;;;10.60;91.00;;;;;;5094755;28;20200;-72
2021/03/11 04:46:56;;;;;;;7.47;3.00;;;10.60;91.30;;;;;;5095006;28;20572;-71
2021/03/11 04:49:23;;;;;;;3.42;2.10;;;10.60;91.20;;;;;;5095621;28;20265;-72
2021/03/11 04:51:50;;;;;;;3.42;2.75;;;10.70;91.40;;;;;;5095626;28;20226;-72
2021/03/11 04:54:19;;;;;;;3.85;2.50;;;10.70;91.30;;;;;;5095117;28;20277;-72
2021/03/11 04:56:45;;;;;;;3.25;2.05;;;10.70;91.40;;;;;;5095495;28;20209;-71
2021/03/11 04:59:12;;;;;;;3.58;2.90;;;10.70;91.40;;;;;;5094574;28;20212;-71
2021/03/11 05:01:41;;;;;;;4.70;2.75;;;10.70;91.40;;;;;;5094135;28;20260;-71
2021/03/11 05:04:10;;;;;;;4.03;2.40;;;10.80;91.60;;;;;;5096668;28;20289;-71
2021/03/11 05:06:36;;;;;;;4.28;2.40;;;10.80;91.50;;;;;;5098004;28;20202;-71
2021/03/11 05:09:04;;;;;;;2.50;1.50;;;10.80;91.60;;;;;;5098739;28;20678;-71
2021/03/11 05:11:31;;;;;;;4.43;2.70;;;10.80;91.70;;;;;;5098263;28;20222;-71
2021/03/11 05:13:57;;;;;;;3.00;2.63;;;10.80;91.80;;;;;;5098869;28;20308;-71
2021/03/11 05:16:24;;;;;;;6.13;3.50;;;10.80;91.80;;;;;;5098417;28;20208;-71
2021/03/11 05:18:50;;;;;;;3.58;2.42;;;10.80;91.90;;;;;;5098506;28;20289;-71
2021/03/11 05:21:17;;;;;;;5.72;2.50;;;10.90;91.90;;;;;;5098393;28;20316;-71
2021/03/11 05:23:43;;;;;;;4.75;2.40;;;10.90;91.80;;;;;;5098682;28;20249;-71
2021/03/11 05:26:10;;;;;;;5.28;3.20;;;10.90;91.90;;;;;;5097550;28;20279;-71
2021/03/11 05:28:36;;;;;;;3.38;2.70;;;10.90;91.90;;;;;;5098131;28;20556;-71
2021/03/11 05:31:02;;;;;;;3.70;2.22;;;10.90;92.00;;;;;;5098427;28;20270;-71
2021/03/11 05:33:29;;;;;;;2.80;2.30;;;10.80;92.10;;;;;;5098957;28;20305;-71
2021/03/11 05:35:55;;;;;;;5.57;2.60;;;10.90;92.20;;;;;;5098381;28;20201;-72
2021/03/11 05:38:22;;;;;;;3.03;2.30;;;10.90;92.20;;;;;;5098098;28;20212;-72
2021/03/11 05:40:52;;;;;;;4.15;2.50;;;10.90;92.30;;;;;;5097791;28;20297;-71
2021/03/11 05:43:19;;;;;;;3.15;2.30;;;10.90;92.50;;;;;;5098077;28;20693;-71
2021/03/11 05:45:46;;;;;;;2.65;2.45;;;10.90;92.50;;;;;;5097694;28;20274;-71
2021/03/11 05:48:15;;;;;;;3.85;2.20;;;10.90;92.70;;;;;;5098294;28;20294;-71
2021/03/11 05:50:42;;;;;;;3.15;2.55;;;10.80;92.70;;;;;;5097916;28;20209;-71
2021/03/11 05:53:10;;;;;;;4.25;2.90;;;10.80;92.90;;;;;;5097685;28;20686;-72
2021/03/11 05:55:39;;;;;;;3.03;2.50;;;10.80;93.00;;;;;;5097586;28;20237;-72
2021/03/11 05:58:07;;;;;;;3.00;2.10;;;10.80;93.20;;;;;;5097566;28;20292;-72
2021/03/11 06:00:33;;;;;;;3.28;2.30;;;10.80;93.20;;;;;;5098367;28;20209;-71
2021/03/11 06:03:01;;;;;;;3.83;2.40;;;10.80;93.40;;;;;;5097426;28;20221;-72
2021/03/11 06:05:28;;;;;;;2.50;2.20;;;10.80;93.50;;;;;;5096945;28;20228;-71
2021/03/11 06:07:54;;;;;;;4.28;2.30;;;10.80;93.60;;;;;;5096803;28;20198;-72
2021/03/11 06:10:22;;;;;;;2.53;2.03;;;10.80;93.70;;;;;;5096908;28;20198;-71
2021/03/11 06:12:50;;;;;;;3.13;2.25;;;10.90;93.70;;;;;;5097133;28;20237;-72
2021/03/11 06:15:23;;;;;;;3.78;2.30;;;10.90;93.70;;;;;;5096056;28;20210;-72
2021/03/11 06:17:50;;;;;;;4.75;2.53;;;10.90;93.70;;;;;;5096579;28;20205;-71
2021/03/11 06:20:17;;;;;;;5.32;2.25;;;11.00;93.90;;;;;;5096686;28;20266;-71
2021/03/11 06:22:43;;;;;;;4.03;2.75;;;10.90;93.90;;;;;;5096923;28;20309;-72
2021/03/11 06:25:11;;;;;;;3.25;2.30;;;10.90;94.00;;;;;;5096745;28;20198;-72
2021/03/11 06:27:37;;;;;;;3.40;2.20;;;10.90;94.10;;;;;;5095887;28;20198;-71
2021/03/11 06:30:05;;;;;;;3.17;2.33;;;11.00;94.20;;;;;;5096039;28;20296;-72
2021/03/11 06:32:52;;;;;;;3.30;2.63;;;11.00;94.10;;;;;;5096933;28;20234;-72
2021/03/11 06:35:19;;;;;;;4.05;2.70;;;11.00;94.10;;;;;;5096517;28;20735;-72
2021/03/11 06:37:48;;;;;;;2.70;1.85;;;11.00;94.40;;;;;;5096389;28;20209;-71
2021/03/11 06:40:15;;;;;;;2.53;2.10;;;11.00;94.20;;;;;;5096478;28;20237;-72
2021/03/11 06:42:42;;;;;;;3.72;2.03;;;11.00;94.10;;;;;;5096238;28;20308;-71
2021/03/11 06:45:27;;;;;;;3.45;2.20;;;11.00;94.10;;;;;;5095936;28;20305;-71
2021/03/11 06:48:27;;;;;;;2.00;1.80;;;11.10;93.90;;;;;;5096026;28;20285;-72
2021/03/11 06:50:55;;;;;;;3.65;2.20;;;11.10;93.60;;;;;;5095986;28;20655;-72
2021/03/11 06:53:21;;;;;;;3.05;2.10;;;11.10;93.40;;;;;;5096110;28;20230;-71
2021/03/11 06:55:47;;;;;;;1.73;1.60;;;11.20;93.40;;;;;;5096235;28;20293;-71
2021/03/11 06:58:18;;;;;;;2.47;2.00;;;11.20;93.30;;;;;;5096059;28;20244;-72
2021/03/11 07:00:46;;;;;;;2.33;1.45;;;11.30;93.20;;;;;;5096322;28;20265;-72
2021/03/11 07:03:13;;;;;;;2.25;1.40;;;11.30;93.00;;;;;;5096288;28;20218;-71
2021/03/11 07:05:42;;;;;;;4.07;1.80;;;11.30;92.90;;;;;;5095724;28;20198;-72
2021/03/11 07:08:11;;;;;;;2.13;1.85;;;11.40;92.70;;;;;;5095638;28;20308;-71
2021/03/11 07:10:38;;;;;;;2.63;1.88;;;11.40;92.70;;;;;;5095635;28;20237;-71
2021/03/11 07:13:05;;;;;;;2.30;1.98;;;11.40;92.60;;;;;;5096173;28;20238;-72
2021/03/11 07:15:33;;;;;;;2.10;1.90;;;11.40;92.70;;;;;;5096010;28;20288;-71
2021/03/11 07:18:02;;;;;;;2.13;1.88;;;11.50;92.70;;;;;;5095078;28;20198;-72
2021/03/11 07:20:31;;;;;;;2.47;1.90;;;11.50;92.60;;;;;;5095512;28;20198;-71
2021/03/11 07:23:08;;;;;;;2.85;2.00;;;11.50;92.60;;;;;;5095772;28;20313;-72
2021/03/11 07:25:36;;;;;;;2.10;1.90;;;11.50;92.60;;;;;;5095765;28;20202;-72
2021/03/11 07:28:04;;;;;;;2.72;2.03;;;11.60;92.70;;;;;;5094532;28;20213;-71
2021/03/11 07:30:31;;;;;;;5.75;1.80;;;11.60;92.70;;;;;;5095286;28;20202;-71
2021/03/11 07:33:01;;;;;;;1.80;1.70;;;11.70;92.70;;;;;;5095467;28;20218;-72
2021/03/11 07:35:30;;;;;;;3.08;1.70;;;11.70;92.80;;;;;;5095868;28;20205;-71
2021/03/11 07:37:59;;;;;;;2.60;1.90;;;11.80;93.10;;;;;;5095354;28;20263;-71
2021/03/11 07:40:26;;;;;;;1.75;1.50;;;11.80;92.70;;;;;;5095503;28;20656;-71
2021/03/11 07:42:53;;;;;;;2.33;1.55;;;11.80;92.70;;;;;;5094809;28;20281;-72
2021/03/11 07:45:20;;;;;;;2.20;1.70;;;11.90;92.70;;;;;;5094868;28;20213;-71
2021/03/11 07:47:46;;;;;;;1.88;1.50;;;11.90;92.60;;;;;;5095155;28;20202;-71
2021/03/11 07:50:15;;;;;;;1.83;1.30;;;12.00;92.70;;;;;;5095109;28;20198;-72
2021/03/11 07:52:42;;;;;;;4.50;1.35;;;12.00;92.80;;;;;;5095026;28;20232;-71
2021/03/11 07:55:10;;;;;;;3.17;1.55;;;12.10;92.70;;;;;;5095272;28;20292;-71
2021/03/11 07:57:42;;;;;;;2.28;1.45;;;12.10;92.60;;;;;;5094635;28;20297;-72
2021/03/11 08:00:11;;;;;;;2.55;1.52;;;12.20;92.60;;;;;;5094913;28;20291;-72
2021/03/11 08:02:42;;;;;;;2.35;1.58;;;12.20;92.60;;;;;;5095089;28;20534;-71
2021/03/11 08:05:11;;;;;;;1.90;1.70;;;12.20;92.60;;;;;;5095039;28;20648;-72
2021/03/11 08:07:38;;;;;;;2.80;1.83;;;12.30;92.60;;;;;;5094187;28;20287;-72
2021/03/11 08:10:20;;;;;;;2.67;1.50;;;12.30;92.50;;;;;;5094414;28;20263;-72
2021/03/11 08:12:46;;;;;;;2.38;1.63;;;12.40;92.40;;;;;;5095066;28;20283;-72
2021/03/11 08:15:31;;;;;;;2.60;1.58;;;12.40;92.20;;;;;;5094787;28;20209;-72
2021/03/11 08:17:58;;;;;;;1.92;1.42;;;12.50;92.10;;;;;;5094628;28;20556;-72
2021/03/11 08:20:40;;;;;;;1.60;1.50;;;12.50;91.90;;;;;;5094324;28;20292;-72
2021/03/11 08:23:10;;;;;;;1.65;1.40;;;12.60;91.80;;;;;;5094677;28;20253;-72
2021/03/11 08:25:44;;;;;;;1.52;1.38;;;12.70;91.80;;;;;;5094611;28;20205;-72
2021/03/11 08:28:47;;;;;;;1.40;1.30;;;12.80;91.60;;;;;;5094193;28;20288;-71
2021/03/11 08:31:14;;;;;;;2.25;1.08;;;12.90;91.50;;;;;;5094238;28;20260;-72
2021/03/11 08:33:47;;;;;;;3.70;1.70;;;12.90;91.30;;;;;;5094621;28;20218;-71
2021/03/11 08:36:41;;;;;;;3.75;1.70;;;12.90;91.30;;;;;;5093970;28;20209;-71
2021/03/11 08:39:36;;;;;;;1.98;1.50;;;12.90;91.30;;;;;;5057770;28;20202;-72
2021/03/11 08:42:49;;;;;;;1.10;1.00;;;13.00;91.30;;;;;;5094452;28;20363;-72
2021/03/11 08:45:55;;;;;;;2.05;1.35;;;13.00;91.30;;;;;;5093811;28;20236;-71
2021/03/11 08:48:22;;;;;;;1.70;1.52;;;13.10;91.10;;;;;;5089602;28;20202;-72
2021/03/11 08:50:50;;;;;;;1.40;1.30;;;13.20;91.00;;;;;;5094479;28;20198;-72
2021/03/11 08:53:49;;;;;;;1.95;1.45;;;13.30;91.00;;;;;;5094032;28;20222;-72
2021/03/11 08:56:41;;;;;;;2.38;1.30;;;13.40;90.90;;;;;;5091579;28;20642;-72
2021/03/11 08:59:09;;;;;;;1.52;1.35;;;13.60;90.80;;;;;;5070454;28;20297;-72
2021/03/11 09:01:38;;;;;;;1.40;1.00;;;13.60;90.80;;;;;;5077393;28;20304;-78
2021/03/11 09:04:05;;;;;;;1.58;1.20;;;13.80;90.90;;;;;;5075661;28;20199;-79
2021/03/11 09:06:51;;;;;;;1.23;1.10;;;14.00;91.00;;;;;;5075995;28;20198;-75
2021/03/11 09:09:18;;;;;;;1.20;1.10;;;13.90;90.90;;;;;;5079363;28;20226;-79
2021/03/11 09:11:56;;;;;;;1.55;1.05;;;13.80;91.10;;;;;;5079624;28;20318;-78
2021/03/11 09:14:23;;;;;;;1.40;1.30;;;13.80;91.30;;;;;;5074968;28;20259;-77
2021/03/11 09:16:49;;;;;;;1.58;1.10;;;13.90;91.60;;;;;;5076515;28;20250;-77
2021/03/11 09:19:16;;;;;;;1.80;1.20;;;14.00;91.50;;;;;;5075485;28;20208;-76
2021/03/11 09:21:43;;;;;;;2.20;1.30;;;14.10;91.10;;;;;;5075937;28;20226;-76
2021/03/11 09:24:16;;;;;;;1.10;1.00;;;14.00;91.10;;;;;;5075927;28;20604;-76
2021/03/11 09:26:43;;;;;;;1.58;1.00;;;14.00;90.90;;;;;;5075893;28;20199;-75
2021/03/11 09:29:11;;;;;;;1.20;1.10;;;14.00;90.80;;;;;;5075967;28;20213;-76
2021/03/11 09:31:39;;;;;;;2.28;1.20;;;14.10;90.60;;;;;;5075845;28;20219;-75
2021/03/11 09:34:06;;;;;;;1.42;1.33;;;14.10;90.80;;;;;;5075533;28;20251;-75
2021/03/11 09:36:32;;;;;;;1.40;1.30;;;14.10;90.50;;;;;;5074908;28;20293;-75
2021/03/11 09:39:04;;;;;;;1.15;1.05;;;14.10;90.30;;;;;;5075739;28;20230;-75
2021/03/11 09:41:31;;;;;;;1.10;1.00;;;14.10;90.50;;;;;;5075642;28;20747;-75
2021/03/11 09:44:03;;;;;;;1.08;0.98;;;14.10;90.50;;;;;;5075321;28;20244;-75
2021/03/11 09:46:30;;;;;;;1.08;0.98;;;14.20;90.80;;;;;;5075373;28;20647;-75
2021/03/11 09:48:58;;;;;;;1.17;1.08;;;14.20;90.60;;;;;;5075840;28;20348;-75
2021/03/11 09:51:26;;;;;;;1.75;1.10;;;14.30;90.50;;;;;;5078143;28;20612;-75
2021/03/11 09:53:54;;;;;;;1.30;1.20;;;14.30;90.60;;;;;;5080000;28;20310;-75
2021/03/11 09:56:22;;;;;;;1.50;0.90;;;14.40;90.10;;;;;;5079287;28;20207;-75
2021/03/11 09:58:50;;;;;;;0.93;0.70;;;14.40;90.10;;;;;;5080210;28;20295;-75
2021/03/11 10:01:25;;;;;;;1.40;1.10;;;14.50;90.10;;;;;;5079481;28;20622;-75
2021/03/11 10:03:52;;;;;;;1.65;1.25;;;14.40;90.20;;;;;;5079725;28;20198;-75
2021/03/11 10:06:20;;;;;;;1.33;1.00;;;14.40;90.60;;;;;;5079671;28;20269;-75
2021/03/11 10:08:47;;;;;;;0.90;0.90;;;14.40;90.40;;;;;;5078514;28;20740;-75
2021/03/11 10:11:15;;;;;;;0.93;0.80;;;14.40;90.40;;;;;;5079277;28;20248;-75
2021/03/11 10:13:48;;;;;;;0.95;0.80;;;14.30;90.90;;;;;;5078458;28;20241;-75
2021/03/11 10:16:16;;;;;;;1.33;0.93;;;14.40;91.00;;;;;;5078335;28;20234;-75
2021/03/11 10:19:05;;;;;;;1.30;0.90;;;14.50;91.10;;;;;;5078635;28;20252;-75
2021/03/11 10:21:32;;;;;;;1.15;0.85;;;14.70;90.80;;;;;;5079646;28;20234;-75
2021/03/11 10:23:59;;;;;;;0.93;0.70;;;15.00;90.50;;;;;;5079678;28;20235;-75
2021/03/11 10:26:27;;;;;;;0.90;0.75;;;15.10;90.20;;;;;;5079444;28;20236;-75
2021/03/11 10:29:03;;;;;;;2.30;1.10;;;15.10;90.00;;;;;;5078565;28;20211;-75
2021/03/11 10:31:29;;;;;;;1.40;1.10;;;15.20;90.40;;;;;;5079722;28;20269;-75
2021/03/11 10:34:05;;;;;;;1.08;0.98;;;15.20;90.30;;;;;;5078703;28;20362;-75
2021/03/11 10:36:32;;;;;;;0.70;0.68;;;15.20;90.40;;;;;;5078783;28;20717;-75
2021/03/11 10:39:07;;;;;;;0.77;0.70;;;15.20;90.70;;;;;;5078167;28;20208;-75
2021/03/11 10:41:34;;;;;;;0.85;0.73;;;15.10;90.90;;;;;;5078558;28;20222;-75
2021/03/11 10:44:13;;;;;;;1.83;0.82;;;15.20;91.20;;;;;;5080087;28;20253;-75
2021/03/11 10:46:40;;;;;;;0.75;0.75;;;15.30;91.20;;;;;;5080000;28;20200;-75
2021/03/11 10:49:08;;;;;;;1.23;0.90;;;15.40;91.10;;;;;;5077262;28;20206;-75
2021/03/11 10:51:35;;;;;;;1.80;1.30;;;15.50;91.10;;;;;;5076239;28;20240;-75
2021/03/11 10:54:02;;;;;;;1.20;1.13;;;15.50;91.30;;;;;;5076069;28;20219;-75
2021/03/11 10:56:29;;;;;;;1.85;1.05;;;15.50;91.20;;;;;;5076289;28;20257;-75
2021/03/11 10:59:04;;;;;;;1.52;0.80;;;15.40;91.40;;;;;;5076213;28;20214;-75
2021/03/11 11:01:30;;;;;;;1.02;0.95;;;15.30;91.80;;;;;;5076137;28;20688;-75
2021/03/11 11:03:59;;;;;;;0.70;0.65;;;15.20;92.10;;;;;;5077012;28;20283;-75
2021/03/11 11:06:28;;;;;;;0.70;0.70;;;15.20;92.50;;;;;;5075946;28;20263;-75
2021/03/11 11:08:55;;;;;;;0.70;0.70;;;15.10;93.70;;;;;;5076269;28;20230;-75
2021/03/11 11:11:22;;;;;;;1.20;0.80;;;14.90;94.30;;;;;;5076689;28;20240;-75
2021/03/11 11:13:49;;;;;;;0.95;0.85;;;14.80;95.20;;;;;;5076069;28;20222;-75
2021/03/11 11:16:16;;;;;;;2.05;1.00;;;14.70;96.30;;;;;;5076216;28;20203;-75
2021/03/11 11:18:43;;;;;;;3.80;0.95;;;14.50;97.80;;;;;;5076346;28;20199;-75
2021/03/11 11:21:10;;;;;;;1.23;0.70;;;14.40;99.50;;;;;;5076088;28;20640;-75
2021/03/11 11:23:37;;;;;;;1.00;1.00;;;14.30;99.90;;;;;;5076326;28;20286;-75
2021/03/11 11:26:04;;;;;;;1.52;0.80;;;14.10;99.90;;;;;;5075414;28;20611;-75
2021/03/11 11:28:30;;;;;;;0.80;0.70;;;14.00;99.90;;;;;;5075493;28;20644;-75
2021/03/11 11:30:57;;;;;;;1.05;0.98;;;13.90;99.90;;;;;;5075305;28;20202;-75
2021/03/11 11:33:23;;;;;;;1.65;0.90;;;13.80;99.90;;;;;;5075697;28;20268;-75
2021/03/11 11:35:50;;;;;;;6.65;3.63;;;13.70;99.90;;;;;;5075874;28;20293;-75
2021/03/11 11:38:17;;;;;;;1.08;1.00;;;13.70;99.90;;;;;;5075201;28;20203;-76
2021/03/11 11:40:44;;;;;;;2.15;1.20;;;13.70;99.90;;;;;;5075904;28;20331;-75
2021/03/11 11:43:11;;;;;;;1.88;1.20;;;13.70;99.90;;;;;;5076033;28;20700;-75
2021/03/11 11:45:37;;;;;;;2.10;1.00;;;13.70;99.90;;;;;;5075791;28;20210;-75
2021/03/11 11:48:04;;;;;;;0.88;0.88;;;13.70;99.90;;;;;;5076688;28;20794;-75
2021/03/11 11:50:30;;;;;;;1.58;0.80;;;13.60;99.90;;;;;;5078484;28;20307;-75
2021/03/11 11:52:56;;;;;;;0.80;0.80;;;13.60;99.90;;;;;;5078426;28;20307;-75
2021/03/11 11:55:23;;;;;;;0.70;0.70;;;13.60;99.90;;;;;;5077595;28;20699;-75
2021/03/11 11:57:50;;;;;;;1.05;0.80;;;13.50;99.90;;;;;;5076714;28;20641;-75
2021/03/11 12:00:18;;;;;;;0.95;0.70;;;13.50;99.90;;;;;;5077606;28;20213;-75
2021/03/11 12:02:45;;;;;;;0.82;0.82;;;13.40;99.90;;;;;;5077770;28;20309;-75
2021/03/11 12:05:13;;;;;;;0.73;0.73;;;13.40;99.90;;;;;;5077286;28;20698;-75
2021/03/11 12:07:39;;;;;;;0.70;0.70;;;13.50;99.90;;;;;;5076534;28;20238;-75
2021/03/11 12:10:09;;;;;;;0.60;0.60;;;13.50;99.90;;;;;;5076836;28;20203;-75
2021/03/11 12:12:35;;;;;;;0.50;0.50;;;13.50;99.90;;;;;;5077147;28;20242;-75
2021/03/11 12:15:03;;;;;;;0.57;0.57;;;13.70;99.90;;;;;;5075851;28;20318;-75
2021/03/11 12:17:29;;;;;;;0.93;0.50;;;13.70;99.90;;;;;;5076421;28;20229;-75
2021/03/11 12:19:56;;;;;;;0.60;0.60;;;13.70;99.90;;;;;;5076544;28;20660;-75
2021/03/11 12:22:22;;;;;;;1.67;0.70;;;13.70;99.90;;;;;;5077303;28;20317;-75
2021/03/11 12:24:48;;;;;;;2.35;0.60;;;13.60;99.90;;;;;;5077474;28;20230;-75
2021/03/11 12:27:15;;;;;;;0.77;0.50;;;13.60;99.90;;;;;;5076597;28;20234;-75
2021/03/11 12:29:41;;;;;;;0.50;0.50;;;13.60;99.90;;;;;;5076591;28;20294;-75
2021/03/11 12:32:09;;;;;;;1.00;0.90;;;13.60;99.90;;;;;;5077160;28;20223;-75
2021/03/11 12:34:35;;;;;;;0.55;0.43;;;13.60;99.90;;;;;;5077134;28;20225;-75
2021/03/11 12:37:02;;;;;;;0.70;0.70;;;13.80;99.90;;;;;;5078134;28;20270;-75
2021/03/11 12:39:28;;;;;;;1.08;0.93;;;13.80;99.90;;;;;;5076202;28;20221;-75
2021/03/11 12:41:54;;;;;;;0.65;0.50;;;14.00;99.90;;;;;;5076279;28;20621;-75
2021/03/11 12:44:20;;;;;;;0.50;0.50;;;14.00;99.90;;;;;;5075841;28;20299;-75
2021/03/11 12:46:47;;;;;;;0.55;0.50;;;14.20;99.90;;;;;;5076034;28;20206;-75
2021/03/11 12:49:14;;;;;;;0.60;0.60;;;14.30;99.90;;;;;;5074738;28;20203;-75
2021/03/11 12:51:40;;;;;;;1.23;0.60;;;14.30;99.90;;;;;;5075001;28;20221;-75
2021/03/11 12:54:07;;;;;;;0.60;0.60;;;14.20;99.90;;;;;;5074824;28;20255;-75
2021/03/11 12:56:33;;;;;;;0.70;0.70;;;14.20;99.90;;;;;;5075127;28;20207;-75